AFR758 LFPG-TFFR
Flight info
| Callsign | AFR758 |
|---|---|
| Flight time | N/A |
| Altitude | 32000 |
| Route | LGL UN491 OTOFE ALUTA TAKAS OMOKO 480000N/0150000W 470000N/0200000W 430000N/0300000W 400000N/0350000W 370000N/0400000W 330000N/0450000W 280000N/0500000W 240000N/0550000W BNJEE BOSET |
| Aircraft | B77W/H-VGDW/C |
Departure
| Time | 2026-05-01 13:54 |
|---|---|
| Airport | Charles de Gaulle International Airport (LFPG) |
Arrival
| Time | N/A |
|---|---|
| Airport | Maryse Condé International Airport (TFFR) |
| Time | Latitude | Longitude | Altitude | Speed | Heading |
|---|---|---|---|---|---|
| 2026-05-01 12:56 | 49.00640 | 2.58937 | 405 ft | 0 kts | 86° |
| 2026-05-01 13:40 | 49.00636 | 2.58869 | 405 ft | 3 kts | 88° |
| 2026-05-01 13:40 | 49.00636 | 2.58843 | 405 ft | 3 kts | 108° |
| 2026-05-01 13:40 | 49.00641 | 2.58823 | 405 ft | 3 kts | 139° |
| 2026-05-01 13:40 | 49.00651 | 2.58812 | 405 ft | 3 kts | 171° |
| 2026-05-01 13:41 | 49.00670 | 2.58810 | 405 ft | 3 kts | 179° |
| 2026-05-01 13:41 | 49.00686 | 2.58809 | 405 ft | 1 kts | 175° |
| 2026-05-01 13:41 | 49.00687 | 2.58809 | 405 ft | 0 kts | 175° |
| 2026-05-01 13:45 | 49.00685 | 2.58809 | 405 ft | 3 kts | 175° |
| 2026-05-01 13:45 | 49.00652 | 2.58814 | 405 ft | 5 kts | 175° |
| 2026-05-01 13:45 | 49.00587 | 2.58822 | 405 ft | 17 kts | 175° |
| 2026-05-01 13:45 | 49.00465 | 2.58837 | 405 ft | 17 kts | 175° |
| 2026-05-01 13:46 | 49.00349 | 2.58850 | 405 ft | 16 kts | 175° |
| 2026-05-01 13:46 | 49.00240 | 2.58863 | 405 ft | 15 kts | 175° |
| 2026-05-01 13:46 | 49.00137 | 2.58875 | 405 ft | 13 kts | 175° |
| 2026-05-01 13:46 | 49.00070 | 2.58863 | 405 ft | 9 kts | 213° |
| 2026-05-01 13:47 | 49.00037 | 2.58781 | 405 ft | 9 kts | 252° |
| 2026-05-01 13:47 | 48.99990 | 2.58724 | 405 ft | 9 kts | 199° |
| 2026-05-01 13:47 | 48.99946 | 2.58647 | 405 ft | 14 kts | 253° |
| 2026-05-01 13:47 | 48.99931 | 2.58457 | 405 ft | 19 kts | 265° |
| 2026-05-01 13:48 | 48.99922 | 2.58259 | 405 ft | 18 kts | 266° |
| 2026-05-01 13:48 | 48.99912 | 2.58071 | 405 ft | 17 kts | 265° |
| 2026-05-01 13:48 | 48.99902 | 2.57893 | 405 ft | 16 kts | 265° |
| 2026-05-01 13:48 | 48.99893 | 2.57724 | 405 ft | 16 kts | 265° |
| 2026-05-01 13:49 | 48.99881 | 2.57512 | 405 ft | 22 kts | 265° |
| 2026-05-01 13:49 | 48.99868 | 2.57286 | 405 ft | 21 kts | 265° |
| 2026-05-01 13:49 | 48.99858 | 2.57074 | 405 ft | 20 kts | 265° |
| 2026-05-01 13:49 | 48.99847 | 2.56868 | 405 ft | 19 kts | 265° |
| 2026-05-01 13:50 | 48.99837 | 2.56673 | 405 ft | 18 kts | 265° |
| 2026-05-01 13:50 | 48.99826 | 2.56487 | 405 ft | 17 kts | 265° |
| 2026-05-01 13:50 | 48.99816 | 2.56308 | 405 ft | 17 kts | 265° |
| 2026-05-01 13:50 | 48.99806 | 2.56129 | 405 ft | 17 kts | 265° |
| 2026-05-01 13:51 | 48.99797 | 2.55959 | 405 ft | 16 kts | 266° |
| 2026-05-01 13:51 | 48.99772 | 2.55805 | 405 ft | 15 kts | 253° |
| 2026-05-01 13:51 | 48.99753 | 2.55657 | 405 ft | 14 kts | 262° |
| 2026-05-01 13:51 | 48.99743 | 2.55518 | 405 ft | 12 kts | 264° |
| 2026-05-01 13:52 | 48.99730 | 2.55451 | 405 ft | 6 kts | 230° |
| 2026-05-01 13:52 | 48.99692 | 2.55436 | 405 ft | 6 kts | 163° |
| 2026-05-01 13:52 | 48.99643 | 2.55475 | 405 ft | 11 kts | 147° |
| 2026-05-01 13:52 | 48.99597 | 2.55558 | 405 ft | 10 kts | 107° |
| 2026-05-01 13:53 | 48.99593 | 2.55671 | 405 ft | 15 kts | 86° |
| 2026-05-01 13:53 | 48.99678 | 2.57287 | 406 ft | 143 kts | 85° |
| 2026-05-01 13:53 | 48.99774 | 2.59071 | 505 ft | 186 kts | 86° |
| 2026-05-01 13:54 | 48.99896 | 2.61042 | 1194 ft | 188 kts | 85° |
| 2026-05-01 13:54 | 49.00054 | 2.63060 | 1916 ft | 194 kts | 84° |
| 2026-05-01 13:54 | 49.00248 | 2.65122 | 2484 ft | 206 kts | 84° |
| 2026-05-01 13:54 | 49.00456 | 2.67338 | 2913 ft | 218 kts | 86° |
| 2026-05-01 13:55 | 49.00504 | 2.69737 | 3186 ft | 235 kts | 94° |
| 2026-05-01 13:55 | 49.00454 | 2.72307 | 3498 ft | 253 kts | 90° |
| 2026-05-01 13:55 | 49.00543 | 2.75043 | 3979 ft | 263 kts | 88° |
| 2026-05-01 13:55 | 49.00737 | 2.77844 | 4562 ft | 269 kts | 85° |
| 2026-05-01 13:56 | 49.00863 | 2.80696 | 5182 ft | 272 kts | 93° |
| 2026-05-01 13:56 | 49.00764 | 2.82605 | 5601 ft | 273 kts | 99° |
| 2026-05-01 13:56 | 49.00407 | 2.85440 | 6344 ft | 273 kts | 104° |
| 2026-05-01 13:56 | 48.99824 | 2.89179 | 7229 ft | 277 kts | 104° |
| 2026-05-01 13:57 | 48.99395 | 2.92055 | 7858 ft | 280 kts | 104° |
| 2026-05-01 13:57 | 48.99106 | 2.94016 | 8282 ft | 282 kts | 104° |
| 2026-05-01 13:57 | 48.98438 | 2.97854 | 9065 ft | 284 kts | 116° |
| 2026-05-01 13:57 | 48.97273 | 3.00253 | 9626 ft | 283 kts | 141° |
| 2026-05-01 13:58 | 48.96168 | 3.01283 | 10067 ft | 282 kts | 158° |
| 2026-05-01 13:58 | 48.94250 | 3.01804 | 10617 ft | 286 kts | 181° |
| 2026-05-01 13:58 | 48.92293 | 3.01013 | 10937 ft | 301 kts | 205° |
| 2026-05-01 13:58 | 48.90620 | 2.98949 | 11159 ft | 323 kts | 228° |
| 2026-05-01 13:59 | 48.89294 | 2.94723 | 11488 ft | 351 kts | 252° |
| 2026-05-01 13:59 | 48.88808 | 2.90999 | 11820 ft | 367 kts | 258° |
| 2026-05-01 13:59 | 48.88532 | 2.88386 | 12114 ft | 375 kts | 258° |
| 2026-05-01 13:59 | 48.88121 | 2.84491 | 12647 ft | 383 kts | 258° |
| 2026-05-01 14:00 | 48.87632 | 2.80489 | 13252 ft | 388 kts | 256° |
| 2026-05-01 14:00 | 48.87058 | 2.76457 | 13878 ft | 393 kts | 255° |
| 2026-05-01 14:00 | 48.86448 | 2.72389 | 14514 ft | 397 kts | 253° |
| 2026-05-01 14:00 | 48.85758 | 2.68314 | 15164 ft | 400 kts | 252° |
| 2026-05-01 14:01 | 48.84993 | 2.64237 | 15798 ft | 404 kts | 251° |
| 2026-05-01 14:01 | 48.84181 | 2.60141 | 16408 ft | 407 kts | 250° |
| 2026-05-01 14:01 | 48.83363 | 2.56005 | 16968 ft | 411 kts | 250° |
| 2026-05-01 14:01 | 48.82547 | 2.51827 | 17568 ft | 414 kts | 250° |
| 2026-05-01 14:02 | 48.81735 | 2.47670 | 18107 ft | 418 kts | 250° |
| 2026-05-01 14:02 | 48.80973 | 2.43389 | 18622 ft | 424 kts | 255° |
| 2026-05-01 14:02 | 48.80586 | 2.38925 | 19163 ft | 430 kts | 262° |
| 2026-05-01 14:02 | 48.80399 | 2.34372 | 19658 ft | 434 kts | 263° |
| 2026-05-01 14:03 | 48.80252 | 2.29782 | 20176 ft | 438 kts | 264° |
| 2026-05-01 14:03 | 48.80160 | 2.25143 | 20686 ft | 442 kts | 265° |
| 2026-05-01 14:03 | 48.80114 | 2.20464 | 21166 ft | 445 kts | 266° |
| 2026-05-01 14:03 | 48.80096 | 2.15748 | 21639 ft | 449 kts | 266° |
| 2026-05-01 14:04 | 48.80086 | 2.10997 | 22118 ft | 452 kts | 266° |
| 2026-05-01 14:04 | 48.80074 | 2.06276 | 22529 ft | 456 kts | 266° |
| 2026-05-01 14:04 | 48.80060 | 2.01454 | 22976 ft | 459 kts | 266° |
| 2026-05-01 14:04 | 48.80043 | 1.96600 | 23414 ft | 462 kts | 266° |
| 2026-05-01 14:05 | 48.80024 | 1.91718 | 23839 ft | 465 kts | 266° |
| 2026-05-01 14:05 | 48.80005 | 1.86804 | 24255 ft | 467 kts | 266° |
| 2026-05-01 14:05 | 48.80020 | 1.81858 | 24655 ft | 471 kts | 267° |
| 2026-05-01 14:05 | 48.80041 | 1.76882 | 25061 ft | 473 kts | 266° |
| 2026-05-01 14:06 | 48.80047 | 1.71881 | 25437 ft | 476 kts | 266° |
| 2026-05-01 14:06 | 48.80040 | 1.66851 | 25823 ft | 478 kts | 266° |
| 2026-05-01 14:06 | 48.80025 | 1.61865 | 26192 ft | 480 kts | 266° |
| 2026-05-01 14:06 | 48.80005 | 1.56785 | 26545 ft | 483 kts | 266° |
| 2026-05-01 14:07 | 48.79981 | 1.51678 | 26926 ft | 485 kts | 266° |
| 2026-05-01 14:07 | 48.79955 | 1.46549 | 27274 ft | 488 kts | 266° |
| 2026-05-01 14:07 | 48.79925 | 1.41398 | 27614 ft | 490 kts | 266° |
| 2026-05-01 14:08 | 48.79858 | 1.31021 | 28271 ft | 494 kts | 266° |
| 2026-05-01 14:08 | 48.79821 | 1.25802 | 28582 ft | 496 kts | 266° |
| 2026-05-01 14:08 | 48.79781 | 1.20560 | 28883 ft | 498 kts | 266° |
| 2026-05-01 14:08 | 48.79740 | 1.15372 | 29177 ft | 500 kts | 266° |
| 2026-05-01 14:09 | 48.79695 | 1.10093 | 29457 ft | 501 kts | 266° |
| 2026-05-01 14:09 | 48.79648 | 1.04809 | 29829 ft | 501 kts | 266° |
| 2026-05-01 14:09 | 48.79610 | 0.99539 | 30256 ft | 498 kts | 267° |
| 2026-05-01 14:09 | 48.79594 | 0.94312 | 30747 ft | 495 kts | 266° |
| 2026-05-01 14:10 | 48.79551 | 0.89105 | 31116 ft | 493 kts | 266° |
| 2026-05-01 14:10 | 48.79488 | 0.83907 | 31446 ft | 492 kts | 266° |
| 2026-05-01 14:10 | 48.79419 | 0.78724 | 31818 ft | 490 kts | 266° |
| 2026-05-01 14:10 | 48.79348 | 0.73567 | 32157 ft | 489 kts | 266° |
| 2026-05-01 14:11 | 48.79277 | 0.68468 | 32223 ft | 490 kts | 266° |
| 2026-05-01 14:11 | 48.79091 | 0.53020 | 32201 ft | 488 kts | 269° |
| 2026-05-01 14:12 | 48.79530 | 0.42751 | 32202 ft | 489 kts | 274° |
| 2026-05-01 14:12 | 48.80285 | 0.32502 | 32203 ft | 489 kts | 274° |
| 2026-05-01 14:13 | 48.80958 | 0.22309 | 32200 ft | 489 kts | 274° |
| 2026-05-01 14:13 | 48.81672 | 0.12051 | 32201 ft | 489 kts | 274° |
| 2026-05-01 14:14 | 48.82281 | 0.01789 | 32200 ft | 488 kts | 273° |
| 2026-05-01 14:14 | 48.82866 | -0.08449 | 32202 ft | 483 kts | 273° |
| 2026-05-01 14:15 | 48.83436 | -0.18438 | 32200 ft | 475 kts | 273° |
| 2026-05-01 14:15 | 48.84000 | -0.28428 | 32201 ft | 475 kts | 273° |
| 2026-05-01 14:16 | 48.84521 | -0.38446 | 32200 ft | 477 kts | 273° |
| 2026-05-01 14:16 | 48.85030 | -0.48478 | 32202 ft | 476 kts | 273° |
| 2026-05-01 14:17 | 48.85527 | -0.58433 | 32202 ft | 476 kts | 273° |
| 2026-05-01 14:17 | 48.86020 | -0.68459 | 32204 ft | 476 kts | 272° |
| 2026-05-01 14:18 | 48.86512 | -0.78482 | 32206 ft | 476 kts | 273° |
| 2026-05-01 14:18 | 48.86980 | -0.86811 | 32207 ft | 476 kts | 273° |
| 2026-05-01 14:19 | 48.87577 | -0.98531 | 32209 ft | 476 kts | 272° |
| 2026-05-01 14:19 | 48.88102 | -1.08490 | 32211 ft | 476 kts | 273° |
| 2026-05-01 14:20 | 48.88797 | -1.23529 | 32215 ft | 476 kts | 272° |
| 2026-05-01 14:21 | 48.89233 | -1.33554 | 32216 ft | 476 kts | 272° |
| 2026-05-01 14:21 | 48.89663 | -1.43514 | 32219 ft | 476 kts | 272° |
| 2026-05-01 14:22 | 48.90333 | -1.58556 | 32228 ft | 476 kts | 272° |
| 2026-05-01 14:22 | 48.90755 | -1.68586 | 32228 ft | 476 kts | 272° |
| 2026-05-01 14:23 | 48.91172 | -1.78617 | 32230 ft | 475 kts | 272° |
| 2026-05-01 14:23 | 48.91569 | -1.88577 | 32230 ft | 475 kts | 272° |
| 2026-05-01 14:24 | 48.91957 | -1.98615 | 32231 ft | 475 kts | 272° |
| 2026-05-01 14:24 | 48.92421 | -2.08645 | 32229 ft | 476 kts | 272° |
| 2026-05-01 14:25 | 48.92818 | -2.18683 | 32231 ft | 476 kts | 271° |
| 2026-05-01 14:25 | 48.93172 | -2.28665 | 32230 ft | 476 kts | 271° |
| 2026-05-01 14:26 | 48.93701 | -2.43734 | 32230 ft | 476 kts | 271° |
| 2026-05-01 14:27 | 48.94049 | -2.53782 | 32230 ft | 476 kts | 271° |
| 2026-05-01 14:27 | 48.94373 | -2.63838 | 32229 ft | 476 kts | 270° |
| 2026-05-01 14:28 | 48.94827 | -2.78845 | 32229 ft | 476 kts | 270° |
| 2026-05-01 14:28 | 48.95118 | -2.88902 | 32230 ft | 476 kts | 270° |
| 2026-05-01 14:29 | 48.95399 | -2.98957 | 32229 ft | 476 kts | 270° |
| 2026-05-01 14:30 | 48.96083 | -3.19000 | 32229 ft | 476 kts | 270° |
| 2026-05-01 14:31 | 48.96532 | -3.34090 | 32230 ft | 476 kts | 269° |
| 2026-05-01 14:31 | 48.96809 | -3.44148 | 32230 ft | 476 kts | 269° |
| 2026-05-01 14:32 | 48.97074 | -3.54206 | 32224 ft | 475 kts | 269° |
| 2026-05-01 14:32 | 48.97328 | -3.64190 | 32222 ft | 475 kts | 269° |
| 2026-05-01 14:33 | 48.97574 | -3.74240 | 32220 ft | 475 kts | 269° |
| 2026-05-01 14:33 | 48.97813 | -3.84298 | 32217 ft | 476 kts | 269° |
| 2026-05-01 14:34 | 48.98041 | -3.94361 | 32213 ft | 475 kts | 269° |
| 2026-05-01 14:34 | 48.98262 | -4.04412 | 32214 ft | 475 kts | 268° |
| 2026-05-01 14:35 | 48.98473 | -4.14405 | 32214 ft | 476 kts | 268° |
| 2026-05-01 14:35 | 48.98675 | -4.24467 | 32228 ft | 475 kts | 268° |
| 2026-05-01 14:36 | 48.98869 | -4.34529 | 32227 ft | 475 kts | 267° |
| 2026-05-01 14:36 | 48.99054 | -4.44587 | 32227 ft | 475 kts | 267° |
| 2026-05-01 14:37 | 48.99229 | -4.54580 | 32225 ft | 475 kts | 267° |
| 2026-05-01 14:37 | 48.99397 | -4.64643 | 32225 ft | 475 kts | 267° |
| 2026-05-01 14:38 | 48.99556 | -4.74705 | 32222 ft | 475 kts | 267° |
| 2026-05-01 14:38 | 48.99706 | -4.84768 | 32222 ft | 476 kts | 266° |
| 2026-05-01 14:39 | 48.99847 | -4.94766 | 32220 ft | 476 kts | 266° |
| 2026-05-01 14:39 | 48.99980 | -5.04834 | 32219 ft | 475 kts | 266° |
| 2026-05-01 14:40 | 49.00104 | -5.14900 | 32217 ft | 476 kts | 266° |
| 2026-05-01 14:40 | 49.00220 | -5.24971 | 32216 ft | 476 kts | 266° |
| 2026-05-01 14:41 | 49.00326 | -5.35042 | 32214 ft | 475 kts | 266° |
| 2026-05-01 14:41 | 49.00424 | -5.45038 | 32213 ft | 476 kts | 265° |
| 2026-05-01 14:42 | 49.00513 | -5.55112 | 32213 ft | 476 kts | 265° |
| 2026-05-01 14:42 | 49.00593 | -5.65184 | 32211 ft | 476 kts | 265° |
| 2026-05-01 14:43 | 49.00665 | -5.75255 | 32210 ft | 475 kts | 265° |
| 2026-05-01 14:43 | 49.00728 | -5.85256 | 32209 ft | 475 kts | 265° |
| 2026-05-01 14:44 | 49.00782 | -5.95316 | 32208 ft | 475 kts | 265° |
| 2026-05-01 14:44 | 49.00847 | -6.10410 | 32207 ft | 475 kts | 264° |
| 2026-05-01 14:45 | 49.00892 | -6.25507 | 32207 ft | 475 kts | 264° |
| 2026-05-01 14:46 | 49.00911 | -6.35499 | 32207 ft | 475 kts | 264° |
| 2026-05-01 14:46 | 49.00924 | -6.50587 | 32206 ft | 474 kts | 264° |
| 2026-05-01 14:47 | 49.00921 | -6.60625 | 32205 ft | 474 kts | 264° |
| 2026-05-01 14:48 | 49.00901 | -6.75611 | 32205 ft | 474 kts | 264° |
| 2026-05-01 14:48 | 49.00862 | -6.90659 | 32205 ft | 474 kts | 264° |
| 2026-05-01 14:49 | 49.00835 | -7.10626 | 32201 ft | 473 kts | 264° |
| 2026-05-01 14:50 | 49.00689 | -7.30635 | 32200 ft | 472 kts | 263° |
| 2026-05-01 14:51 | 49.00557 | -7.45625 | 32199 ft | 471 kts | 263° |
| 2026-05-01 14:52 | 49.00476 | -7.60530 | 32199 ft | 471 kts | 263° |
| 2026-05-01 14:53 | 49.00315 | -7.75494 | 32199 ft | 471 kts | 263° |
| 2026-05-01 14:53 | 49.00188 | -7.85463 | 32198 ft | 471 kts | 263° |
| 2026-05-01 14:54 | 49.00060 | -7.95363 | 32197 ft | 471 kts | 263° |
| 2026-05-01 14:54 | 48.99903 | -8.05324 | 32197 ft | 470 kts | 262° |
| 2026-05-01 14:55 | 48.99636 | -8.15251 | 32196 ft | 469 kts | 262° |
| 2026-05-01 14:55 | 48.99355 | -8.25160 | 32196 ft | 468 kts | 262° |
| 2026-05-01 14:56 | 48.99070 | -8.35059 | 32194 ft | 468 kts | 262° |
| 2026-05-01 14:56 | 48.98778 | -8.44958 | 32195 ft | 468 kts | 262° |
| 2026-05-01 14:57 | 48.98493 | -8.54795 | 32187 ft | 469 kts | 262° |
| 2026-05-01 14:57 | 48.98161 | -8.69664 | 32185 ft | 468 kts | 262° |
| 2026-05-01 14:58 | 48.97890 | -8.79567 | 32184 ft | 468 kts | 262° |
| 2026-05-01 14:58 | 48.97597 | -8.89464 | 32183 ft | 468 kts | 262° |
| 2026-05-01 14:59 | 48.97295 | -8.99282 | 32182 ft | 467 kts | 262° |
| 2026-05-01 14:59 | 48.96980 | -9.09162 | 32179 ft | 467 kts | 262° |
| 2026-05-01 15:00 | 48.96492 | -9.23974 | 32151 ft | 467 kts | 262° |
| 2026-05-01 15:01 | 48.96156 | -9.33853 | 32151 ft | 467 kts | 262° |
| 2026-05-01 15:01 | 48.95814 | -9.43657 | 32149 ft | 467 kts | 262° |
| 2026-05-01 15:02 | 48.95461 | -9.53526 | 32149 ft | 467 kts | 262° |
| 2026-05-01 15:02 | 48.95100 | -9.63382 | 32174 ft | 467 kts | 262° |
| 2026-05-01 15:03 | 48.94731 | -9.73241 | 32175 ft | 467 kts | 262° |
| 2026-05-01 15:03 | 48.94356 | -9.83019 | 32173 ft | 466 kts | 262° |
| 2026-05-01 15:04 | 48.93971 | -9.92860 | 32174 ft | 466 kts | 262° |
| 2026-05-01 15:04 | 48.93576 | -10.02711 | 32149 ft | 467 kts | 262° |
| 2026-05-01 15:05 | 48.93174 | -10.12540 | 32142 ft | 465 kts | 262° |
| 2026-05-01 15:05 | 48.92768 | -10.22286 | 32141 ft | 465 kts | 262° |
| 2026-05-01 15:06 | 48.92350 | -10.32097 | 32140 ft | 465 kts | 262° |
| 2026-05-01 15:06 | 48.91924 | -10.41906 | 32130 ft | 465 kts | 262° |
| 2026-05-01 15:07 | 48.91489 | -10.51711 | 32102 ft | 464 kts | 262° |
| 2026-05-01 15:07 | 48.91050 | -10.61443 | 32102 ft | 464 kts | 262° |
| 2026-05-01 15:08 | 48.90600 | -10.71228 | 32101 ft | 464 kts | 262° |
| 2026-05-01 15:08 | 48.90141 | -10.81016 | 32102 ft | 464 kts | 262° |
| 2026-05-01 15:09 | 48.89674 | -10.90798 | 32102 ft | 464 kts | 262° |
| 2026-05-01 15:09 | 48.89203 | -11.00506 | 32102 ft | 464 kts | 262° |
| 2026-05-01 15:10 | 48.88721 | -11.10257 | 32103 ft | 461 kts | 262° |
| 2026-05-01 15:10 | 48.87988 | -11.24780 | 32103 ft | 459 kts | 262° |
| 2026-05-01 15:11 | 48.87240 | -11.39244 | 32103 ft | 460 kts | 262° |
| 2026-05-01 15:12 | 48.86730 | -11.48915 | 32104 ft | 459 kts | 262° |
| 2026-05-01 15:12 | 48.86006 | -11.63431 | 32104 ft | 459 kts | 262° |
| 2026-05-01 15:14 | 48.84626 | -11.87501 | 32104 ft | 459 kts | 261° |
| 2026-05-01 15:14 | 48.83066 | -12.01736 | 32106 ft | 455 kts | 250° |
| 2026-05-01 15:15 | 48.78697 | -12.19625 | 32105 ft | 453 kts | 245° |
| 2026-05-01 15:16 | 48.73944 | -12.37305 | 32106 ft | 453 kts | 245° |
| 2026-05-01 15:18 | 48.68078 | -12.59349 | 32106 ft | 453 kts | 246° |
| 2026-05-01 15:19 | 48.63346 | -12.77025 | 32107 ft | 453 kts | 246° |
| 2026-05-01 15:19 | 48.59770 | -12.90196 | 32107 ft | 454 kts | 246° |
| 2026-05-01 15:20 | 48.56159 | -13.03407 | 32108 ft | 454 kts | 246° |
| 2026-05-01 15:21 | 48.53743 | -13.12208 | 32109 ft | 454 kts | 246° |
| 2026-05-01 15:21 | 48.51320 | -13.20999 | 32108 ft | 454 kts | 246° |
| 2026-05-01 15:22 | 48.47690 | -13.34104 | 32109 ft | 453 kts | 246° |
| 2026-05-01 15:22 | 48.45253 | -13.42863 | 32110 ft | 453 kts | 246° |
| 2026-05-01 15:23 | 48.42813 | -13.51604 | 32110 ft | 452 kts | 246° |
| 2026-05-01 15:23 | 48.40370 | -13.60319 | 32110 ft | 452 kts | 245° |
| 2026-05-01 15:24 | 48.37923 | -13.69019 | 32111 ft | 451 kts | 245° |
| 2026-05-01 15:24 | 48.35490 | -13.77636 | 32111 ft | 450 kts | 245° |
| 2026-05-01 15:25 | 48.33038 | -13.86293 | 32111 ft | 450 kts | 245° |
| 2026-05-01 15:25 | 48.30581 | -13.94933 | 32112 ft | 449 kts | 245° |
| 2026-05-01 15:26 | 48.28136 | -14.03501 | 32111 ft | 450 kts | 245° |
| 2026-05-01 15:26 | 48.25664 | -14.12132 | 32113 ft | 450 kts | 245° |
| 2026-05-01 15:27 | 48.23185 | -14.20759 | 32112 ft | 451 kts | 245° |
| 2026-05-01 15:28 | 48.19448 | -14.33705 | 32113 ft | 452 kts | 245° |
| 2026-05-01 15:28 | 48.16959 | -14.42286 | 32113 ft | 453 kts | 245° |
| 2026-05-01 15:29 | 48.13176 | -14.55278 | 32114 ft | 455 kts | 246° |
| 2026-05-01 15:30 | 48.08117 | -14.72702 | 32109 ft | 458 kts | 246° |
| 2026-05-01 15:31 | 48.00359 | -14.98990 | 32111 ft | 465 kts | 249° |
| 2026-05-01 15:32 | 47.96772 | -15.17450 | 32111 ft | 465 kts | 256° |
| 2026-05-01 15:34 | 47.91808 | -15.45569 | 32111 ft | 470 kts | 255° |